Time;durP1;ratioP1;P1;durP2;ratioP2;P2;SDS_P1;SDS_P2;PMS_P1;PMS_P2;Temp;Humidity;BMP_temperature;BMP_pressure;BME280_temperature;BME280_humidity;BME280_pressure;Samples;Min_cycle;Max_cycle;Signal;HPM_P1;HPM_P2
2022/09/14 00:00:01;;;;;;;4.87;4.47;;;17.40;82.30;;;;;;5009788;28;20233;-61
2022/09/14 00:02:26;;;;;;;5.07;4.67;;;17.30;82.40;;;;;;5025019;28;20189;-61
2022/09/14 00:05:04;;;;;;;5.23;4.40;;;17.30;82.50;;;;;;5008187;28;20243;-61
2022/09/14 00:07:30;;;;;;;10.10;4.90;;;17.30;82.80;;;;;;5002093;28;20195;-61
2022/09/14 00:09:56;;;;;;;5.50;4.40;;;17.30;82.70;;;;;;4985229;28;20201;-61
2022/09/14 00:12:21;;;;;;;5.43;4.87;;;17.30;82.60;;;;;;5010392;28;20189;-61
2022/09/14 00:14:47;;;;;;;5.00;4.30;;;17.30;82.70;;;;;;5039852;28;20283;-61
2022/09/14 00:17:13;;;;;;;4.90;4.37;;;17.30;82.60;;;;;;4997515;28;20185;-61
2022/09/14 00:19:38;;;;;;;6.63;4.87;;;17.30;82.80;;;;;;5007240;28;20219;-61
2022/09/14 00:22:05;;;;;;;6.33;4.73;;;17.30;82.70;;;;;;4987338;28;20186;-61
2022/09/14 00:24:33;;;;;;;10.03;5.20;;;17.30;82.50;;;;;;4992724;28;20210;-61
2022/09/14 00:26:59;;;;;;;4.83;4.13;;;17.30;82.40;;;;;;5009313;28;20204;-61
2022/09/14 00:29:25;;;;;;;9.23;4.63;;;17.30;82.50;;;;;;5037382;28;20198;-61
2022/09/14 00:31:51;;;;;;;5.80;4.60;;;17.30;82.40;;;;;;4992468;28;20325;-61
2022/09/14 00:34:17;;;;;;;5.20;4.70;;;17.30;82.40;;;;;;4985462;28;20197;-61
2022/09/14 00:36:46;;;;;;;4.80;4.40;;;17.30;82.40;;;;;;4982389;28;20250;-61
2022/09/14 00:39:12;;;;;;;5.80;4.60;;;17.30;82.40;;;;;;4999423;28;20267;-61
2022/09/14 00:41:44;;;;;;;5.33;4.30;;;17.20;82.80;;;;;;4989692;28;20201;-61
2022/09/14 00:44:09;;;;;;;6.00;4.90;;;17.20;82.90;;;;;;5013433;28;20173;-61
2022/09/14 00:46:57;;;;;;;8.70;5.23;;;17.20;82.80;;;;;;5008811;28;20228;-61
2022/09/14 00:49:30;;;;;;;6.17;4.60;;;17.30;82.80;;;;;;5018106;28;20181;-61
2022/09/14 00:52:07;;;;;;;5.87;5.27;;;17.30;82.90;;;;;;5015946;28;20180;-61
2022/09/14 00:54:39;;;;;;;5.13;4.63;;;17.30;82.70;;;;;;4990450;28;20188;-61
2022/09/14 00:57:06;;;;;;;7.07;5.00;;;17.20;82.70;;;;;;5024710;28;20199;-61
2022/09/14 00:59:35;;;;;;;5.23;4.37;;;17.20;82.70;;;;;;4996650;28;20205;-61
2022/09/14 01:02:01;;;;;;;6.07;5.03;;;17.20;82.80;;;;;;4991324;28;20181;-61
2022/09/14 01:04:27;;;;;;;6.10;5.23;;;17.20;82.80;;;;;;4995910;28;20186;-61
2022/09/14 01:07:05;;;;;;;8.70;4.57;;;17.20;82.90;;;;;;5023272;28;20184;-61
2022/09/14 01:10:08;;;;;;;5.37;4.87;;;17.10;82.90;;;;;;4987718;28;20182;-61
2022/09/14 01:12:43;;;;;;;8.07;5.00;;;17.10;83.10;;;;;;4980421;28;20200;-61
2022/09/14 01:15:37;;;;;;;5.83;5.07;;;17.10;83.20;;;;;;4979687;28;20212;-61
2022/09/14 01:18:21;;;;;;;5.37;4.53;;;17.10;83.40;;;;;;4981053;28;20263;-61
2022/09/14 01:21:02;;;;;;;7.20;4.80;;;17.10;83.40;;;;;;4986972;28;20176;-61
2022/09/14 01:23:38;;;;;;;6.10;4.50;;;17.00;83.60;;;;;;4999675;28;20182;-61
2022/09/14 01:26:28;;;;;;;7.53;5.00;;;17.00;83.60;;;;;;5030622;28;20187;-61
2022/09/14 01:29:14;;;;;;;5.10;4.50;;;17.00;83.60;;;;;;5035417;28;20224;-61
2022/09/14 01:32:11;;;;;;;6.33;4.83;;;17.00;83.50;;;;;;4990601;28;20189;-61
2022/09/14 01:34:44;;;;;;;8.77;5.10;;;17.00;83.70;;;;;;4985833;28;20184;-61
2022/09/14 01:37:36;;;;;;;5.10;4.60;;;17.00;83.70;;;;;;5007794;28;20182;-61
2022/09/14 01:40:21;;;;;;;6.73;4.53;;;17.00;83.80;;;;;;4988663;28;20184;-61
2022/09/14 01:42:53;;;;;;;5.30;4.80;;;17.00;83.90;;;;;;4997441;28;20184;-61
2022/09/14 01:45:22;;;;;;;5.13;4.47;;;17.00;83.90;;;;;;4987462;28;20192;-61
2022/09/14 01:47:55;;;;;;;10.60;5.03;;;17.00;83.80;;;;;;4991723;28;20189;-61
2022/09/14 01:50:35;;;;;;;5.77;4.57;;;17.10;83.70;;;;;;5027245;28;20185;-61
2022/09/14 01:53:16;;;;;;;5.33;4.77;;;17.00;83.60;;;;;;5011973;28;20215;-61
2022/09/14 01:55:48;;;;;;;5.27;4.87;;;17.10;83.80;;;;;;4994181;28;20191;-61
2022/09/14 01:58:25;;;;;;;7.50;4.23;;;17.10;83.60;;;;;;5018608;28;20208;-61
2022/09/14 02:00:55;;;;;;;5.13;4.47;;;17.10;83.60;;;;;;4987825;28;20269;-61
2022/09/14 02:03:45;;;;;;;6.30;4.80;;;17.10;83.60;;;;;;4992476;28;20187;-61
2022/09/14 02:06:19;;;;;;;6.67;4.60;;;17.00;83.70;;;;;;4990416;28;20260;-61
2022/09/14 02:08:46;;;;;;;7.93;5.10;;;17.00;83.80;;;;;;4975248;28;20231;-61
2022/09/14 02:11:11;;;;;;;7.47;4.47;;;17.00;84.00;;;;;;4998888;28;20193;-61
2022/09/14 02:13:37;;;;;;;5.07;4.60;;;17.10;83.90;;;;;;5007960;28;20195;-61
2022/09/14 02:16:03;;;;;;;5.57;4.60;;;17.10;83.80;;;;;;4979738;28;20196;-61
2022/09/14 02:18:30;;;;;;;5.33;4.50;;;17.10;83.70;;;;;;4975398;28;20209;-61
2022/09/14 02:21:20;;;;;;;13.87;4.97;;;17.10;83.60;;;;;;4989888;28;20277;-61
2022/09/14 02:23:48;;;;;;;7.27;5.13;;;17.10;83.60;;;;;;4990363;28;20212;-61
2022/09/14 02:26:15;;;;;;;7.13;5.10;;;17.10;83.70;;;;;;4986484;28;20263;-61
2022/09/14 02:28:40;;;;;;;5.07;4.20;;;17.10;83.70;;;;;;4984241;28;20185;-61
2022/09/14 02:31:24;;;;;;;5.83;4.50;;;17.10;83.80;;;;;;5018183;28;20200;-61
2022/09/14 02:34:04;;;;;;;8.53;4.90;;;17.10;83.80;;;;;;5019012;28;20199;-61
2022/09/14 02:36:50;;;;;;;7.03;5.03;;;17.10;83.80;;;;;;5007282;28;20233;-61
2022/09/14 02:39:46;;;;;;;4.80;4.30;;;17.10;83.90;;;;;;5007937;28;20296;-60
2022/09/14 02:42:22;;;;;;;6.20;4.00;;;17.00;83.80;;;;;;5020116;28;20213;-60
2022/09/14 02:45:41;;;;;;;7.67;4.50;;;17.00;83.90;;;;;;5011127;28;20211;-60
2022/09/14 02:48:19;;;;;;;6.77;4.70;;;17.00;84.20;;;;;;5021741;28;20195;-61
2022/09/14 02:51:14;;;;;;;6.83;4.70;;;17.10;84.20;;;;;;5007694;28;20193;-60
2022/09/14 02:54:05;;;;;;;6.07;5.47;;;17.10;84.00;;;;;;5009920;28;20181;-60
2022/09/14 02:56:31;;;;;;;5.60;4.30;;;17.00;83.90;;;;;;5014066;28;20208;-60
2022/09/14 02:58:57;;;;;;;7.57;4.77;;;17.00;84.00;;;;;;4975150;28;20217;-60
2022/09/14 03:01:23;;;;;;;4.87;4.37;;;17.00;84.30;;;;;;4971585;28;20247;-60
2022/09/14 03:03:49;;;;;;;4.97;4.47;;;17.00;84.10;;;;;;4975237;28;20228;-60
2022/09/14 03:06:15;;;;;;;5.30;4.60;;;17.00;84.20;;;;;;5030354;28;20189;-60
2022/09/14 03:08:41;;;;;;;5.70;4.63;;;17.00;84.10;;;;;;5008154;28;20276;-60
2022/09/14 03:11:07;;;;;;;6.07;4.87;;;17.10;84.00;;;;;;5020505;28;20232;-60
2022/09/14 03:13:36;;;;;;;5.30;4.57;;;17.10;83.80;;;;;;4998048;28;20211;-60
2022/09/14 03:16:10;;;;;;;4.83;4.33;;;17.10;84.00;;;;;;4991875;28;20193;-60
2022/09/14 03:18:37;;;;;;;5.03;4.63;;;17.10;84.00;;;;;;5008125;28;20220;-60
2022/09/14 03:21:11;;;;;;;7.13;4.60;;;17.20;84.10;;;;;;4978042;28;20221;-60
2022/09/14 03:23:37;;;;;;;6.33;4.97;;;17.20;84.10;;;;;;4981539;28;20193;-60
2022/09/14 03:26:11;;;;;;;9.00;4.33;;;17.20;84.10;;;;;;5004502;28;20201;-60
2022/09/14 03:28:38;;;;;;;6.77;4.33;;;17.20;83.90;;;;;;4987686;28;20229;-60
2022/09/14 03:31:05;;;;;;;5.87;4.30;;;17.20;84.00;;;;;;4999534;28;20203;-60
2022/09/14 03:33:32;;;;;;;6.23;4.70;;;17.20;84.00;;;;;;4989720;28;20243;-60
2022/09/14 03:35:57;;;;;;;6.17;5.10;;;17.10;84.20;;;;;;4986321;28;20248;-60
2022/09/14 03:38:25;;;;;;;6.03;4.57;;;17.10;84.40;;;;;;5020349;28;20216;-60
2022/09/14 03:40:52;;;;;;;5.53;4.57;;;17.10;84.50;;;;;;4995371;28;20280;-60
2022/09/14 03:43:18;;;;;;;7.03;5.10;;;17.10;84.30;;;;;;5039681;28;20199;-60
2022/09/14 03:45:44;;;;;;;5.90;4.50;;;17.00;84.40;;;;;;5005702;28;20193;-60
2022/09/14 03:48:10;;;;;;;6.00;5.30;;;17.00;84.50;;;;;;5029035;28;20315;-60
2022/09/14 03:50:37;;;;;;;5.97;4.30;;;17.00;84.60;;;;;;5017723;28;20243;-60
2022/09/14 03:53:03;;;;;;;5.17;4.60;;;17.00;84.60;;;;;;4999018;28;20224;-60
2022/09/14 03:55:29;;;;;;;5.80;4.80;;;17.00;84.60;;;;;;4992240;28;20190;-60
2022/09/14 03:57:55;;;;;;;5.57;4.77;;;17.00;84.50;;;;;;5012829;28;20203;-60
2022/09/14 04:00:21;;;;;;;6.03;4.27;;;17.00;84.50;;;;;;5008585;28;20192;-60
2022/09/14 04:02:47;;;;;;;8.90;4.83;;;17.00;84.50;;;;;;4994970;28;20200;-60
2022/09/14 04:05:13;;;;;;;7.73;5.50;;;17.00;84.50;;;;;;5011082;28;20189;-60
2022/09/14 04:07:39;;;;;;;5.20;4.70;;;17.00;84.50;;;;;;4987582;28;20193;-60
2022/09/14 04:10:06;;;;;;;4.73;4.27;;;17.00;84.60;;;;;;5003842;28;20197;-61
2022/09/14 04:12:36;;;;;;;5.57;4.60;;;17.00;84.60;;;;;;4989263;28;20185;-60
2022/09/14 04:15:03;;;;;;;5.23;4.67;;;17.00;84.60;;;;;;5038708;28;20193;-60
2022/09/14 04:17:29;;;;;;;6.00;4.97;;;16.90;84.60;;;;;;4976366;28;20249;-60
2022/09/14 04:19:54;;;;;;;5.27;4.33;;;16.90;84.80;;;;;;5000841;28;20299;-60
2022/09/14 04:22:20;;;;;;;7.27;5.00;;;17.00;84.80;;;;;;5008247;28;20216;-60
2022/09/14 04:24:46;;;;;;;6.80;4.43;;;16.90;84.80;;;;;;5015790;28;20188;-60
2022/09/14 04:27:12;;;;;;;8.03;5.40;;;16.90;84.80;;;;;;4997263;28;20200;-60
2022/09/14 04:29:37;;;;;;;5.20;4.67;;;16.90;84.90;;;;;;5004182;28;20209;-60
2022/09/14 04:32:03;;;;;;;7.37;4.33;;;16.90;84.90;;;;;;5012096;28;20324;-60
2022/09/14 04:34:29;;;;;;;5.70;4.43;;;16.80;84.90;;;;;;4979643;28;20199;-60
2022/09/14 04:36:55;;;;;;;5.30;4.80;;;16.80;85.10;;;;;;4998039;28;20193;-60
2022/09/14 04:39:21;;;;;;;7.30;4.60;;;16.80;85.00;;;;;;5004216;28;20212;-60
2022/09/14 04:41:47;;;;;;;8.17;4.47;;;16.80;85.00;;;;;;4993341;28;20272;-61
2022/09/14 04:44:13;;;;;;;5.47;4.50;;;16.80;84.80;;;;;;5011847;28;20591;-61
2022/09/14 04:46:41;;;;;;;5.33;4.80;;;16.80;84.80;;;;;;5014086;28;20217;-60
2022/09/14 04:49:07;;;;;;;5.67;4.30;;;16.80;84.70;;;;;;4976122;28;20185;-60
2022/09/14 04:51:34;;;;;;;5.57;4.97;;;16.80;84.80;;;;;;4980196;28;20189;-61
2022/09/14 04:54:01;;;;;;;8.30;4.87;;;16.80;84.80;;;;;;4982817;28;20248;-61
2022/09/14 04:56:30;;;;;;;5.80;4.77;;;16.80;84.70;;;;;;5015076;28;20189;-60
2022/09/14 04:58:59;;;;;;;7.43;4.77;;;16.80;84.70;;;;;;5015610;28;20210;-60
2022/09/14 05:01:33;;;;;;;5.43;4.93;;;16.80;84.60;;;;;;5017528;28;20185;-60
2022/09/14 05:03:59;;;;;;;6.07;4.23;;;16.80;84.90;;;;;;4981209;28;20188;-60
2022/09/14 05:06:28;;;;;;;5.20;4.03;;;16.80;84.90;;;;;;4982941;28;20269;-60
2022/09/14 05:08:54;;;;;;;5.17;4.53;;;16.90;84.70;;;;;;5013925;28;20197;-60
2022/09/14 05:11:26;;;;;;;5.20;4.50;;;16.90;84.50;;;;;;4994781;28;20247;-60
2022/09/14 05:13:54;;;;;;;5.40;4.67;;;16.90;84.80;;;;;;4986551;28;20185;-59
2022/09/14 05:16:26;;;;;;;6.53;4.43;;;16.90;84.70;;;;;;4994871;28;20223;-60
2022/09/14 05:18:57;;;;;;;6.70;4.80;;;17.00;84.50;;;;;;5011777;28;20245;-60
2022/09/14 05:21:23;;;;;;;5.70;4.77;;;17.00;84.30;;;;;;5018998;28;20192;-60
2022/09/14 05:23:57;;;;;;;4.97;4.57;;;17.00;84.30;;;;;;4991106;28;20184;-60
2022/09/14 05:26:25;;;;;;;5.53;4.93;;;17.10;84.40;;;;;;5018594;28;20209;-60
2022/09/14 05:28:53;;;;;;;5.13;4.27;;;17.10;84.30;;;;;;4982407;28;20192;-60
2022/09/14 05:31:19;;;;;;;5.97;4.43;;;17.10;84.30;;;;;;5023502;28;20210;-60
2022/09/14 05:33:46;;;;;;;6.43;4.90;;;17.20;84.40;;;;;;4986975;28;20239;-60
2022/09/14 05:36:11;;;;;;;7.17;4.43;;;17.20;84.20;;;;;;4986575;28;20208;-60
2022/09/14 05:38:38;;;;;;;6.33;4.57;;;17.20;84.20;;;;;;4995121;28;20217;-60
2022/09/14 05:41:05;;;;;;;7.77;4.73;;;17.20;84.30;;;;;;5023421;28;20180;-60
2022/09/14 05:43:33;;;;;;;8.87;5.40;;;17.30;84.20;;;;;;5005241;28;20271;-60
2022/09/14 05:46:03;;;;;;;6.93;4.90;;;17.30;84.20;;;;;;5023982;28;20192;-60
2022/09/14 05:48:33;;;;;;;5.10;4.60;;;17.30;84.30;;;;;;4981499;28;20275;-60
2022/09/14 05:51:00;;;;;;;5.50;4.73;;;17.30;84.20;;;;;;5012362;28;20225;-60
2022/09/14 05:53:27;;;;;;;6.30;4.77;;;17.30;84.20;;;;;;4993438;28;20211;-60
2022/09/14 05:56:00;;;;;;;7.03;4.60;;;17.30;84.30;;;;;;4989801;28;20196;-60
2022/09/14 05:58:26;;;;;;;8.10;4.73;;;17.30;84.30;;;;;;5006607;28;20217;-60
2022/09/14 06:00:52;;;;;;;4.80;4.27;;;17.40;84.20;;;;;;5036183;28;20195;-60
2022/09/14 06:03:18;;;;;;;4.53;4.13;;;17.40;84.10;;;;;;4989297;28;20285;-60
2022/09/14 06:05:43;;;;;;;4.10;3.80;;;17.50;84.10;;;;;;5019123;28;20192;-60
2022/09/14 06:08:09;;;;;;;6.43;3.73;;;17.50;84.00;;;;;;4997506;28;20220;-60
2022/09/14 06:10:35;;;;;;;5.70;4.60;;;17.60;83.80;;;;;;5006153;28;20196;-60
2022/09/14 06:13:01;;;;;;;4.67;3.80;;;17.60;83.60;;;;;;5013524;28;20216;-60
2022/09/14 06:15:26;;;;;;;5.03;3.90;;;17.70;83.50;;;;;;5009350;28;20223;-60
2022/09/14 06:17:52;;;;;;;8.40;4.20;;;17.80;83.50;;;;;;4970008;28;20204;-60
2022/09/14 06:20:17;;;;;;;5.13;3.80;;;17.80;83.40;;;;;;5004512;28;20256;-60
2022/09/14 06:22:44;;;;;;;7.73;4.07;;;17.80;83.30;;;;;;5020421;28;20238;-60
2022/09/14 06:25:10;;;;;;;5.30;4.20;;;17.80;83.20;;;;;;4980074;28;20190;-59
2022/09/14 06:27:36;;;;;;;6.60;4.30;;;17.90;83.10;;;;;;5019908;28;20195;-59
2022/09/14 06:30:03;;;;;;;5.47;3.83;;;17.90;83.00;;;;;;5002512;28;20193;-60
2022/09/14 06:32:30;;;;;;;4.50;4.10;;;17.90;82.90;;;;;;5013275;28;20286;-60
2022/09/14 06:34:56;;;;;;;5.00;4.00;;;17.90;83.00;;;;;;5010835;28;20242;-59
2022/09/14 06:37:21;;;;;;;5.83;3.83;;;18.00;83.00;;;;;;4984258;28;20190;-59
2022/09/14 06:39:47;;;;;;;4.13;3.73;;;18.00;82.90;;;;;;5007921;28;20223;-60
2022/09/14 06:42:13;;;;;;;6.37;3.63;;;18.00;82.90;;;;;;4998519;28;20199;-59
2022/09/14 06:44:39;;;;;;;4.47;4.00;;;18.00;82.90;;;;;;4981035;28;20188;-59
2022/09/14 06:47:05;;;;;;;4.97;3.80;;;18.10;82.80;;;;;;5028282;28;20181;-60
2022/09/14 06:49:30;;;;;;;5.80;4.50;;;18.10;82.80;;;;;;4986326;28;20188;-60
2022/09/14 06:51:56;;;;;;;5.03;3.53;;;18.10;83.00;;;;;;4993433;28;20246;-59
2022/09/14 06:54:22;;;;;;;7.20;3.77;;;18.20;83.10;;;;;;5002107;28;20273;-60
2022/09/14 06:56:48;;;;;;;4.70;3.83;;;18.20;83.00;;;;;;5015073;28;20185;-60
2022/09/14 06:59:15;;;;;;;7.40;3.73;;;18.20;83.00;;;;;;4993232;28;20216;-59
2022/09/14 07:01:42;;;;;;;3.33;3.03;;;18.20;83.00;;;;;;5020065;28;20203;-60
2022/09/14 07:04:08;;;;;;;5.73;4.50;;;18.20;83.00;;;;;;5008466;28;20186;-59
2022/09/14 07:06:41;;;;;;;4.57;3.50;;;18.20;83.00;;;;;;5004860;28;20200;-60
2022/09/14 07:09:07;;;;;;;4.27;3.60;;;18.30;83.00;;;;;;4983899;28;20184;-60
2022/09/14 07:11:34;;;;;;;4.13;3.23;;;18.30;82.70;;;;;;4982934;28;20223;-60
2022/09/14 07:14:01;;;;;;;4.90;3.80;;;18.40;82.60;;;;;;4995974;28;20184;-60
2022/09/14 07:16:27;;;;;;;3.93;3.53;;;18.40;82.10;;;;;;4992791;28;20197;-60
2022/09/14 07:18:58;;;;;;;6.37;4.13;;;18.50;82.00;;;;;;5027076;28;20210;-60
2022/09/14 07:21:24;;;;;;;5.33;3.63;;;18.50;81.70;;;;;;4997570;28;20190;-60
2022/09/14 07:23:50;;;;;;;5.67;3.93;;;18.50;82.00;;;;;;5019186;28;20220;-60
2022/09/14 07:26:21;;;;;;;4.80;3.93;;;18.60;82.00;;;;;;4984370;28;20195;-60
2022/09/14 07:28:51;;;;;;;4.57;3.50;;;18.60;82.20;;;;;;4988351;28;20272;-60
2022/09/14 07:31:30;;;;;;;4.50;3.77;;;18.70;82.50;;;;;;4989060;28;20181;-60
2022/09/14 07:34:03;;;;;;;4.63;3.70;;;18.70;82.80;;;;;;5013597;28;20204;-60
2022/09/14 07:36:30;;;;;;;4.17;3.37;;;18.70;82.60;;;;;;5019296;28;20276;-60
2022/09/14 07:38:56;;;;;;;4.07;3.63;;;18.70;82.60;;;;;;5016363;28;20339;-60
2022/09/14 07:41:23;;;;;;;4.77;3.30;;;18.70;82.60;;;;;;5004266;28;20288;-60
2022/09/14 07:43:50;;;;;;;4.63;3.43;;;18.80;82.10;;;;;;5016009;28;20209;-60
2022/09/14 07:46:17;;;;;;;4.10;3.10;;;18.80;82.10;;;;;;4988389;28;20184;-60
2022/09/14 07:48:42;;;;;;;3.30;3.00;;;18.80;82.00;;;;;;5008857;28;20192;-60
2022/09/14 07:51:10;;;;;;;6.73;3.60;;;18.90;81.70;;;;;;4998446;28;20193;-60
2022/09/14 07:53:41;;;;;;;3.80;3.40;;;19.00;81.80;;;;;;4977372;28;20196;-60
2022/09/14 07:56:08;;;;;;;4.17;3.77;;;19.10;81.80;;;;;;4978384;28;20216;-60
2022/09/14 07:58:34;;;;;;;5.03;3.37;;;19.20;81.70;;;;;;4997684;28;20204;-60
2022/09/14 08:01:03;;;;;;;5.33;4.20;;;19.30;81.50;;;;;;5001990;28;20189;-60
2022/09/14 08:03:30;;;;;;;4.80;3.40;;;19.30;81.80;;;;;;4989646;28;20245;-60
2022/09/14 08:06:04;;;;;;;7.30;3.30;;;19.40;81.60;;;;;;4999699;28;20196;-60
2022/09/14 08:08:34;;;;;;;5.30;3.30;;;19.50;81.20;;;;;;4990865;28;20195;-60
2022/09/14 08:11:16;;;;;;;5.73;4.30;;;19.50;81.70;;;;;;4980046;28;20203;-60
2022/09/14 08:13:45;;;;;;;5.87;3.77;;;19.60;81.20;;;;;;5012920;28;20343;-60
2022/09/14 08:16:11;;;;;;;5.87;3.60;;;19.70;81.60;;;;;;4995080;28;20265;-60
2022/09/14 08:18:37;;;;;;;3.77;3.40;;;19.80;80.80;;;;;;4978534;28;20213;-60
2022/09/14 08:21:14;;;;;;;3.50;3.20;;;19.80;80.80;;;;;;4998757;28;20180;-60
2022/09/14 08:23:41;;;;;;;4.60;3.23;;;19.80;80.60;;;;;;5022939;28;20195;-60
2022/09/14 08:26:11;;;;;;;5.00;3.83;;;19.80;80.50;;;;;;4983012;28;20185;-60
2022/09/14 08:28:37;;;;;;;5.53;3.57;;;20.00;78.20;;;;;;5025060;28;20199;-61
2022/09/14 08:31:10;;;;;;;5.70;3.37;;;20.10;78.70;;;;;;4988103;28;20185;-61
2022/09/14 08:33:39;;;;;;;4.23;3.33;;;20.20;79.20;;;;;;5019277;28;20316;-61
2022/09/14 08:36:07;;;;;;;3.07;2.83;;;20.20;78.00;;;;;;5022190;28;20216;-59
2022/09/14 08:38:33;;;;;;;3.77;3.47;;;20.30;78.00;;;;;;4988832;28;20301;-59
2022/09/14 08:41:17;;;;;;;6.87;3.20;;;20.40;78.60;;;;;;5025372;28;20247;-59
2022/09/14 08:43:43;;;;;;;3.97;3.40;;;20.40;79.50;;;;;;4982148;28;20176;-60
2022/09/14 08:46:17;;;;;;;4.77;3.30;;;20.40;79.10;;;;;;4973470;28;20189;-60
2022/09/14 08:48:47;;;;;;;4.47;2.90;;;20.50;79.20;;;;;;5007642;28;20185;-60
2022/09/14 08:51:14;;;;;;;4.00;3.20;;;20.60;79.20;;;;;;5018836;28;20193;-60
2022/09/14 08:53:41;;;;;;;4.40;3.53;;;20.60;78.90;;;;;;4995936;28;20212;-60
2022/09/14 08:56:22;;;;;;;3.40;3.10;;;20.60;79.00;;;;;;5018633;28;20203;-60
2022/09/14 08:59:03;;;;;;;3.93;3.00;;;20.60;79.20;;;;;;4982362;28;20215;-60
2022/09/14 09:01:36;;;;;;;6.17;3.20;;;20.60;79.10;;;;;;5020305;28;20254;-60
2022/09/14 09:04:43;;;;;;;5.47;2.80;;;20.60;78.30;;;;;;4976644;28;20188;-60
2022/09/14 09:07:30;;;;;;;3.67;3.17;;;20.60;78.10;;;;;;4985565;28;20183;-60
2022/09/14 09:09:57;;;;;;;4.87;2.90;;;20.80;74.00;;;;;;5019558;28;20189;-60
2022/09/14 09:12:26;;;;;;;4.83;2.80;;;20.80;74.70;;;;;;5003625;28;20233;-60
2022/09/14 09:14:59;;;;;;;3.67;2.67;;;20.90;71.50;;;;;;5025662;28;20208;-60
2022/09/14 09:17:33;;;;;;;4.20;3.13;;;21.00;73.30;;;;;;4983437;28;20189;-60
2022/09/14 09:20:10;;;;;;;5.20;3.33;;;21.00;74.10;;;;;;5017068;28;20242;-60
2022/09/14 09:22:43;;;;;;;8.10;3.30;;;21.00;74.80;;;;;;4989740;28;20205;-60
2022/09/14 09:25:20;;;;;;;3.40;2.63;;;21.10;73.40;;;;;;4978095;28;21745;-60
2022/09/14 09:27:46;;;;;;;3.50;3.07;;;21.20;74.30;;;;;;4983759;28;20177;-60
2022/09/14 09:30:14;;;;;;;4.57;3.47;;;21.30;71.50;;;;;;5013792;28;20191;-60
2022/09/14 09:32:41;;;;;;;5.77;2.93;;;21.40;72.80;;;;;;4980017;28;20237;-60
2022/09/14 09:35:12;;;;;;;4.13;2.87;;;21.70;69.60;;;;;;4995810;28;20189;-60
2022/09/14 09:37:38;;;;;;;5.40;3.00;;;21.80;68.70;;;;;;4978557;28;20191;-60
2022/09/14 09:40:29;;;;;;;4.57;2.70;;;21.90;68.40;;;;;;5014510;28;20208;-60
2022/09/14 09:43:13;;;;;;;4.37;3.20;;;22.00;70.40;;;;;;5022881;28;20183;-60
2022/09/14 09:46:06;;;;;;;5.27;3.27;;;21.90;71.10;;;;;;4987485;28;20207;-60
2022/09/14 09:48:43;;;;;;;4.80;3.20;;;22.00;71.60;;;;;;5023914;28;20188;-60
2022/09/14 09:51:12;;;;;;;3.60;3.10;;;22.00;72.60;;;;;;5022694;28;20188;-60
2022/09/14 09:53:50;;;;;;;6.87;2.93;;;22.00;74.00;;;;;;4984064;28;20208;-60
2022/09/14 09:56:21;;;;;;;5.67;3.17;;;22.10;69.10;;;;;;4974379;28;20189;-60
2022/09/14 09:58:50;;;;;;;4.00;3.10;;;22.10;70.60;;;;;;5007947;28;20208;-60
2022/09/14 10:01:34;;;;;;;4.63;3.70;;;22.20;71.60;;;;;;5008593;28;20198;-60
2022/09/14 10:04:05;;;;;;;4.07;3.47;;;22.20;70.00;;;;;;4978594;28;20195;-60
2022/09/14 10:06:31;;;;;;;6.57;3.77;;;22.20;69.60;;;;;;4991602;28;20212;-61
2022/09/14 10:08:57;;;;;;;4.67;3.60;;;22.30;70.60;;;;;;4982997;28;20192;-60
2022/09/14 10:11:32;;;;;;;8.17;4.00;;;22.30;70.90;;;;;;5001369;28;20184;-60
2022/09/14 10:13:58;;;;;;;10.37;4.50;;;22.30;71.10;;;;;;4988715;28;20184;-60
2022/09/14 10:16:29;;;;;;;9.73;4.77;;;22.50;67.90;;;;;;4990467;28;20215;-61
2022/09/14 10:18:56;;;;;;;5.47;4.60;;;22.60;69.10;;;;;;5021396;28;20254;-60
2022/09/14 10:21:24;;;;;;;8.77;5.83;;;22.60;70.30;;;;;;5005572;28;20189;-59
2022/09/14 10:24:18;;;;;;;11.93;4.70;;;22.60;70.20;;;;;;4991033;28;20192;-59
2022/09/14 10:26:43;;;;;;;8.80;5.30;;;22.70;70.30;;;;;;5022067;28;20196;-59
2022/09/14 10:29:55;;;;;;;9.03;4.43;;;22.80;70.50;;;;;;4990077;28;20257;-60
2022/09/14 10:32:24;;;;;;;5.63;4.30;;;22.80;71.50;;;;;;4982140;28;20242;-60
2022/09/14 10:34:50;;;;;;;6.30;4.30;;;22.80;70.20;;;;;;4983357;28;20517;-60
2022/09/14 10:37:19;;;;;;;5.83;3.53;;;22.90;70.40;;;;;;4987938;28;20185;-60
2022/09/14 10:39:52;;;;;;;7.07;3.73;;;23.10;69.60;;;;;;5017765;28;20204;-60
2022/09/14 10:42:39;;;;;;;5.00;3.87;;;23.30;70.80;;;;;;4977980;28;20204;-60
2022/09/14 10:45:28;;;;;;;6.17;3.87;;;23.30;69.90;;;;;;4976867;28;20188;-60
2022/09/14 10:48:21;;;;;;;6.17;3.70;;;23.30;70.10;;;;;;4991296;28;20181;-60
2022/09/14 10:51:19;;;;;;;4.10;3.70;;;23.30;70.10;;;;;;4974922;28;20200;-60
2022/09/14 10:54:12;;;;;;;6.87;3.77;;;23.30;70.80;;;;;;4975954;28;20189;-60
2022/09/14 10:57:04;;;;;;;5.53;3.60;;;23.60;70.50;;;;;;5019442;28;20189;-60
2022/09/14 10:59:54;;;;;;;4.80;3.30;;;23.60;70.40;;;;;;4988253;28;20279;-60
2022/09/14 11:02:54;;;;;;;7.60;3.27;;;23.60;70.90;;;;;;4985382;28;20248;-60
2022/09/14 11:05:36;;;;;;;3.93;3.50;;;23.70;67.60;;;;;;5016198;28;20199;-60
2022/09/14 11:08:44;;;;;;;5.70;3.10;;;24.00;68.50;;;;;;5007451;28;20185;-60
2022/09/14 11:11:21;;;;;;;3.73;2.87;;;24.40;64.40;;;;;;4989222;28;20252;-60
2022/09/14 11:14:24;;;;;;;4.93;3.00;;;24.40;66.30;;;;;;4991934;28;20172;-60
2022/09/14 11:17:06;;;;;;;8.13;3.13;;;24.30;68.70;;;;;;4990407;28;20180;-60
2022/09/14 11:19:42;;;;;;;3.37;3.07;;;24.40;69.10;;;;;;5018618;28;20215;-61
2022/09/14 11:22:18;;;;;;;6.07;3.20;;;24.30;69.70;;;;;;5014095;28;20177;-61
2022/09/14 11:24:52;;;;;;;3.40;3.10;;;24.50;68.80;;;;;;5010454;28;20239;-61
2022/09/14 11:27:30;;;;;;;4.47;2.70;;;24.50;68.60;;;;;;5017310;28;20239;-61
2022/09/14 11:30:03;;;;;;;4.93;2.77;;;24.50;69.00;;;;;;5020406;28;20192;-61
2022/09/14 11:32:41;;;;;;;5.80;3.20;;;24.50;67.10;;;;;;5020176;28;20244;-59
2022/09/14 11:35:31;;;;;;;4.27;3.00;;;24.60;66.10;;;;;;5018164;28;20266;-59
2022/09/14 11:38:01;;;;;;;3.50;2.80;;;24.70;66.00;;;;;;5010795;28;20188;-59
2022/09/14 11:40:56;;;;;;;2.80;2.60;;;24.70;67.30;;;;;;5021731;28;20196;-60
2022/09/14 11:43:34;;;;;;;4.30;2.53;;;24.80;67.50;;;;;;5021640;28;20192;-60
2022/09/14 11:46:11;;;;;;;3.33;2.80;;;25.00;67.70;;;;;;5021867;28;20180;-59
2022/09/14 11:48:55;;;;;;;8.03;3.17;;;25.10;66.70;;;;;;4991078;28;20188;-59
2022/09/14 11:51:27;;;;;;;4.97;2.30;;;25.20;66.20;;;;;;5026309;28;20224;-59
2022/09/14 11:53:53;;;;;;;5.33;3.00;;;25.30;67.70;;;;;;5009087;28;20245;-59
2022/09/14 11:56:29;;;;;;;5.60;2.87;;;25.40;65.10;;;;;;5008780;28;20201;-59
2022/09/14 11:58:58;;;;;;;2.97;2.70;;;26.00;61.30;;;;;;4978763;28;20220;-58
2022/09/14 12:01:35;;;;;;;4.43;2.60;;;26.10;62.50;;;;;;4994256;28;20288;-59
2022/09/14 12:04:16;;;;;;;2.83;2.63;;;26.20;60.60;;;;;;5007536;28;20188;-60
2022/09/14 12:06:46;;;;;;;5.37;2.90;;;26.30;61.90;;;;;;5011426;28;20197;-59
2022/09/14 12:09:12;;;;;;;5.20;3.00;;;26.50;63.80;;;;;;5009496;28;20192;-60
2022/09/14 12:11:37;;;;;;;3.90;2.60;;;26.60;58.50;;;;;;5017404;28;20189;-59
2022/09/14 12:14:39;;;;;;;2.80;2.60;;;26.60;57.00;;;;;;5004721;28;20247;-60
2022/09/14 12:17:16;;;;;;;5.23;2.73;;;26.70;60.50;;;;;;5011507;28;20206;-59
2022/09/14 12:19:45;;;;;;;4.57;3.00;;;26.80;57.30;;;;;;4997577;28;20220;-61
2022/09/14 12:22:31;;;;;;;5.17;2.80;;;27.00;55.70;;;;;;4982344;28;20220;-61
2022/09/14 12:25:16;;;;;;;4.50;2.90;;;27.10;56.30;;;;;;5019961;28;20184;-61
2022/09/14 12:27:44;;;;;;;2.93;2.63;;;27.40;58.10;;;;;;5023503;28;20192;-59
2022/09/14 12:30:38;;;;;;;3.80;2.70;;;27.70;59.00;;;;;;4975264;28;20242;-59
2022/09/14 12:33:30;;;;;;;3.67;2.50;;;28.00;57.00;;;;;;5025506;28;20236;-60
2022/09/14 12:36:03;;;;;;;4.30;2.80;;;28.40;56.50;;;;;;5011828;28;20208;-59
2022/09/14 12:38:28;;;;;;;2.93;2.63;;;28.80;52.10;;;;;;4993456;28;20270;-60
2022/09/14 12:41:09;;;;;;;4.13;2.73;;;28.80;51.10;;;;;;4989666;28;20182;-60
2022/09/14 12:43:35;;;;;;;4.67;2.73;;;29.50;49.60;;;;;;5012972;28;20251;-60
2022/09/14 12:46:20;;;;;;;9.50;3.30;;;29.70;48.20;;;;;;5016308;28;20184;-60
2022/09/14 12:48:46;;;;;;;9.47;3.53;;;29.70;48.30;;;;;;4984043;28;20252;-60
2022/09/14 12:51:34;;;;;;;9.17;3.87;;;30.00;48.70;;;;;;5019188;28;20261;-60
2022/09/14 12:54:06;;;;;;;6.67;2.70;;;30.20;49.80;;;;;;4988129;28;20209;-60
2022/09/14 12:56:35;;;;;;;5.63;2.70;;;30.30;49.60;;;;;;5020158;28;20193;-60
2022/09/14 12:59:17;;;;;;;5.23;3.07;;;30.50;48.00;;;;;;4993011;28;20307;-60
2022/09/14 13:02:10;;;;;;;6.63;2.83;;;30.60;48.10;;;;;;4982655;28;20253;-60
2022/09/14 13:04:37;;;;;;;3.43;2.60;;;30.40;45.70;;;;;;5012988;28;20234;-60
2022/09/14 13:07:06;;;;;;;3.60;2.70;;;30.40;46.50;;;;;;4991723;28;20181;-60
2022/09/14 13:09:32;;;;;;;2.87;2.27;;;30.70;46.20;;;;;;5014436;28;20316;-60
2022/09/14 13:12:04;;;;;;;4.23;2.37;;;30.60;44.40;;;;;;4982356;28;20200;-60